sensor_id;sensor_type;location;lat;lon;timestamp;pressure;altitude;pressure_sealevel;temperature;humidity
39449;BME280;25151;45.566;9.382;2023-04-15T00:02:18;98567.50;;;19.74;56.48
39449;BME280;25151;45.566;9.382;2023-04-15T00:05:18;98562.69;;;19.74;56.62
39449;BME280;25151;45.566;9.382;2023-04-15T00:08:20;98563.19;;;19.73;56.74
39449;BME280;25151;45.566;9.382;2023-04-15T00:11:20;98547.63;;;19.72;56.67
39449;BME280;25151;45.566;9.382;2023-04-15T00:14:21;98541.25;;;19.71;56.71
39449;BME280;25151;45.566;9.382;2023-04-15T00:17:22;98543.78;;;19.69;56.63
39449;BME280;25151;45.566;9.382;2023-04-15T00:20:23;98544.53;;;19.70;56.54
39449;BME280;25151;45.566;9.382;2023-04-15T00:23:24;98536.91;;;19.70;56.49
39449;BME280;25151;45.566;9.382;2023-04-15T00:26:26;98538.94;;;19.70;56.60
39449;BME280;25151;45.566;9.382;2023-04-15T00:29:27;98531.81;;;19.69;56.57
39449;BME280;25151;45.566;9.382;2023-04-15T00:32:29;98531.03;;;19.68;56.75
39449;BME280;25151;45.566;9.382;2023-04-15T00:35:30;98528.69;;;19.67;56.64
39449;BME280;25151;45.566;9.382;2023-04-15T00:38:35;98523.09;;;19.67;56.54
39449;BME280;25151;45.566;9.382;2023-04-15T00:41:36;98524.66;;;19.68;56.66
39449;BME280;25151;45.566;9.382;2023-04-15T00:44:39;98517.50;;;19.67;56.74
39449;BME280;25151;45.566;9.382;2023-04-15T00:47:42;98527.44;;;19.68;56.17
39449;BME280;25151;45.566;9.382;2023-04-15T00:50:43;98521.56;;;19.65;56.58
39449;BME280;25151;45.566;9.382;2023-04-15T00:53:44;98520.03;;;19.64;56.69
39449;BME280;25151;45.566;9.382;2023-04-15T00:56:44;98519.25;;;19.64;56.51
39449;BME280;25151;45.566;9.382;2023-04-15T00:59:46;98508.06;;;19.64;56.64
39449;BME280;25151;45.566;9.382;2023-04-15T01:02:46;98512.88;;;19.63;56.64
39449;BME280;25151;45.566;9.382;2023-04-15T01:05:48;98514.13;;;19.62;56.45
39449;BME280;25151;45.566;9.382;2023-04-15T01:08:49;98520.47;;;19.63;56.63
39449;BME280;25151;45.566;9.382;2023-04-15T01:11:50;98521.25;;;19.63;56.70
39449;BME280;25151;45.566;9.382;2023-04-15T01:14:53;98528.09;;;19.62;56.57
39449;BME280;25151;45.566;9.382;2023-04-15T01:17:53;98524.53;;;19.62;56.60
39449;BME280;25151;45.566;9.382;2023-04-15T01:20:54;98522.19;;;19.60;56.54
39449;BME280;25151;45.566;9.382;2023-04-15T01:23:56;98523.75;;;19.61;56.66
39449;BME280;25151;45.566;9.382;2023-04-15T01:26:57;98522.19;;;19.60;56.67
39449;BME280;25151;45.566;9.382;2023-04-15T01:29:58;98522.97;;;19.61;56.72
39449;BME280;25151;45.566;9.382;2023-04-15T01:32:59;98533.38;;;19.60;56.83
39449;BME280;25151;45.566;9.382;2023-04-15T01:36:01;98524.22;;;19.60;56.71
39449;BME280;25151;45.566;9.382;2023-04-15T01:39:02;98545.00;;;19.59;56.76
39449;BME280;25151;45.566;9.382;2023-04-15T01:42:04;98537.41;;;19.59;56.66
39449;BME280;25151;45.566;9.382;2023-04-15T01:45:06;98540.19;;;19.59;56.53
39449;BME280;25151;45.566;9.382;2023-04-15T01:48:07;98535.84;;;19.58;56.65
39449;BME280;25151;45.566;9.382;2023-04-15T01:51:09;98539.13;;;19.57;56.57
39449;BME280;25151;45.566;9.382;2023-04-15T01:54:09;98542.72;;;19.57;56.67
39449;BME280;25151;45.566;9.382;2023-04-15T01:57:10;98540.38;;;19.56;56.69
39449;BME280;25151;45.566;9.382;2023-04-15T02:00:11;98541.16;;;19.56;56.68
39449;BME280;25151;45.566;9.382;2023-04-15T02:03:14;98541.16;;;19.56;56.71
39449;BME280;25151;45.566;9.382;2023-04-15T02:06:15;98533.22;;;19.55;56.71
39449;BME280;25151;45.566;9.382;2023-04-15T02:09:16;98536.78;;;19.55;56.42
39449;BME280;25151;45.566;9.382;2023-04-15T02:12:16;98536.03;;;19.55;56.68
39449;BME280;25151;45.566;9.382;2023-04-15T02:15:17;98538.81;;;19.55;56.57
39449;BME280;25151;45.566;9.382;2023-04-15T02:18:18;98539.59;;;19.55;56.71
39449;BME280;25151;45.566;9.382;2023-04-15T02:21:18;98542.09;;;19.53;56.77
39449;BME280;25151;45.566;9.382;2023-04-15T02:24:19;98549.25;;;19.54;56.69
39449;BME280;25151;45.566;9.382;2023-04-15T02:27:20;98547.69;;;19.53;56.54
39449;BME280;25151;45.566;9.382;2023-04-15T02:30:21;98544.13;;;19.53;56.56
39449;BME280;25151;45.566;9.382;2023-04-15T02:33:23;98548.94;;;19.52;56.63
39449;BME280;25151;45.566;9.382;2023-04-15T02:36:24;98544.59;;;19.51;56.63
39449;BME280;25151;45.566;9.382;2023-04-15T02:39:26;98539.00;;;19.51;56.63
39449;BME280;25151;45.566;9.382;2023-04-15T02:42:28;98545.84;;;19.50;56.54
39449;BME280;25151;45.566;9.382;2023-04-15T02:45:29;98547.09;;;19.49;56.63
39449;BME280;25151;45.566;9.382;2023-04-15T02:48:31;98554.22;;;19.50;56.63
39449;BME280;25151;45.566;9.382;2023-04-15T02:51:31;98548.63;;;19.50;56.80
39449;BME280;25151;45.566;9.382;2023-04-15T02:54:32;98552.69;;;19.49;56.61
39449;BME280;25151;45.566;9.382;2023-04-15T02:57:33;98557.78;;;19.51;56.75
39449;BME280;25151;45.566;9.382;2023-04-15T03:00:36;98557.03;;;19.50;56.64
39449;BME280;25151;45.566;9.382;2023-04-15T03:03:37;98551.13;;;19.48;56.46
39449;BME280;25151;45.566;9.382;2023-04-15T03:06:37;98553.44;;;19.50;56.55
39449;BME280;25151;45.566;9.382;2023-04-15T03:09:38;98547.09;;;19.49;56.70
39449;BME280;25151;45.566;9.382;2023-04-15T03:12:40;98546.78;;;19.47;56.67
39449;BME280;25151;45.566;9.382;2023-04-15T03:15:41;98542.75;;;19.48;56.67
39449;BME280;25151;45.566;9.382;2023-04-15T03:18:41;98541.94;;;19.48;56.72
39449;BME280;25151;45.566;9.382;2023-04-15T03:21:42;98546.78;;;19.47;56.82
39449;BME280;25151;45.566;9.382;2023-04-15T03:24:43;98550.81;;;19.46;56.70
39449;BME280;25151;45.566;9.382;2023-04-15T03:27:43;98546.50;;;19.45;56.69
39449;BME280;25151;45.566;9.382;2023-04-15T03:30:44;98548.03;;;19.46;56.70
39449;BME280;25151;45.566;9.382;2023-04-15T03:33:45;98542.91;;;19.45;56.66
39449;BME280;25151;45.566;9.382;2023-04-15T03:36:46;98552.06;;;19.45;56.69
39449;BME280;25151;45.566;9.382;2023-04-15T03:39:47;98549.28;;;19.45;56.78
39449;BME280;25151;45.566;9.382;2023-04-15T03:42:48;98554.88;;;19.45;56.43
39449;BME280;25151;45.566;9.382;2023-04-15T03:45:49;98558.94;;;19.44;56.91
39449;BME280;25151;45.566;9.382;2023-04-15T03:48:51;98551.31;;;19.45;56.67
39449;BME280;25151;45.566;9.382;2023-04-15T03:51:52;98560.16;;;19.43;56.55
39449;BME280;25151;45.566;9.382;2023-04-15T03:54:53;98557.34;;;19.43;56.69
39449;BME280;25151;45.566;9.382;2023-04-15T03:57:54;98559.22;;;19.46;56.57
39449;BME280;25151;45.566;9.382;2023-04-15T04:00:56;98559.22;;;19.46;56.42
39449;BME280;25151;45.566;9.382;2023-04-15T04:03:57;98558.94;;;19.44;56.70
39449;BME280;25151;45.566;9.382;2023-04-15T04:06:59;98559.38;;;19.42;56.67
39449;BME280;25151;45.566;9.382;2023-04-15T04:10:02;98572.59;;;19.42;56.67
39449;BME280;25151;45.566;9.382;2023-04-15T04:13:04;98567.00;;;19.42;56.59
39449;BME280;25151;45.566;9.382;2023-04-15T04:16:07;98569.78;;;19.42;56.45
39449;BME280;25151;45.566;9.382;2023-04-15T04:19:09;98585.78;;;19.41;56.58
39449;BME280;25151;45.566;9.382;2023-04-15T04:22:10;98580.97;;;19.42;56.52
39449;BME280;25151;45.566;9.382;2023-04-15T04:25:11;98580.97;;;19.42;56.50
39449;BME280;25151;45.566;9.382;2023-04-15T04:28:13;98578.66;;;19.40;56.50
39449;BME280;25151;45.566;9.382;2023-04-15T04:31:14;98586.25;;;19.40;56.58
39449;BME280;25151;45.566;9.382;2023-04-15T04:34:16;98589.03;;;19.40;56.58
39449;BME280;25151;45.566;9.382;2023-04-15T04:37:17;98591.06;;;19.39;56.66
39449;BME280;25151;45.566;9.382;2023-04-15T04:40:18;98592.31;;;19.38;56.50
39449;BME280;25151;45.566;9.382;2023-04-15T04:43:20;98597.91;;;19.38;56.43
39449;BME280;25151;45.566;9.382;2023-04-15T04:46:21;98593.09;;;19.39;56.56
39449;BME280;25151;45.566;9.382;2023-04-15T04:49:23;98600.69;;;19.38;56.50
39449;BME280;25151;45.566;9.382;2023-04-15T04:52:24;98605.53;;;19.38;56.52
39449;BME280;25151;45.566;9.382;2023-04-15T04:55:26;98611.09;;;19.38;56.52
39449;BME280;25151;45.566;9.382;2023-04-15T04:58:27;98604.75;;;19.37;56.57
39449;BME280;25151;45.566;9.382;2023-04-15T05:01:29;98612.38;;;19.37;56.31
39449;BME280;25151;45.566;9.382;2023-04-15T05:04:30;98611.59;;;19.36;56.21
39449;BME280;25151;45.566;9.382;2023-04-15T05:07:31;98619.19;;;19.36;56.44
39449;BME280;25151;45.566;9.382;2023-04-15T05:10:32;98619.19;;;19.36;56.60
39449;BME280;25151;45.566;9.382;2023-04-15T05:13:33;98624.00;;;19.35;56.53
39449;BME280;25151;45.566;9.382;2023-04-15T05:16:38;98621.97;;;19.36;56.47
39449;BME280;25151;45.566;9.382;2023-04-15T05:19:39;98626.78;;;19.35;56.43
39449;BME280;25151;45.566;9.382;2023-04-15T05:22:41;98624.47;;;19.34;56.41
39449;BME280;25151;45.566;9.382;2023-04-15T05:25:45;98625.25;;;19.34;56.40
39449;BME280;25151;45.566;9.382;2023-04-15T05:28:46;98631.59;;;19.35;56.56
39449;BME280;25151;45.566;9.382;2023-04-15T05:31:47;98637.19;;;19.35;56.53
39449;BME280;25151;45.566;9.382;2023-04-15T05:34:48;98650.41;;;19.34;56.25
39449;BME280;25151;45.566;9.382;2023-04-15T05:37:49;98641.25;;;19.34;56.49
39449;BME280;25151;45.566;9.382;2023-04-15T05:40:51;98641.25;;;19.34;56.33
39449;BME280;25151;45.566;9.382;2023-04-15T05:43:52;98652.44;;;19.34;56.41
39449;BME280;25151;45.566;9.382;2023-04-15T05:46:53;98648.09;;;19.33;56.33
39449;BME280;25151;45.566;9.382;2023-04-15T05:49:54;98660.03;;;19.33;56.37
39449;BME280;25151;45.566;9.382;2023-04-15T05:52:55;98657.25;;;19.33;56.28
39449;BME280;25151;45.566;9.382;2023-04-15T05:55:56;98650.13;;;19.32;56.11
39449;BME280;25151;45.566;9.382;2023-04-15T05:58:57;98662.06;;;19.33;56.30
39449;BME280;25151;45.566;9.382;2023-04-15T06:01:59;98664.84;;;19.33;56.40
39449;BME280;25151;45.566;9.382;2023-04-15T06:05:02;98673.25;;;19.33;56.45
39449;BME280;25151;45.566;9.382;2023-04-15T06:08:05;98674.47;;;19.32;56.26
39449;BME280;25151;45.566;9.382;2023-04-15T06:11:06;98671.66;;;19.32;56.29
39449;BME280;25151;45.566;9.382;2023-04-15T06:14:08;98676.50;;;19.31;56.32
39449;BME280;25151;45.566;9.382;2023-04-15T06:17:09;98677.25;;;19.32;56.32
39449;BME280;25151;45.566;9.382;2023-04-15T06:20:15;98681.31;;;19.31;56.32
39449;BME280;25151;45.566;9.382;2023-04-15T06:23:17;98681.78;;;19.29;56.50
39449;BME280;25151;45.566;9.382;2023-04-15T06:26:18;98688.16;;;19.30;56.30
39449;BME280;25151;45.566;9.382;2023-04-15T06:29:19;98688.16;;;19.30;56.31
39449;BME280;25151;45.566;9.382;2023-04-15T06:32:20;98688.16;;;19.30;56.23
39449;BME280;25151;45.566;9.382;2023-04-15T06:35:21;98688.91;;;19.30;56.29
39449;BME280;25151;45.566;9.382;2023-04-15T06:38:25;98702.91;;;19.30;56.27
39449;BME280;25151;45.566;9.382;2023-04-15T06:41:27;98690.94;;;19.30;56.31
39449;BME280;25151;45.566;9.382;2023-04-15T06:44:28;98702.91;;;19.30;56.46
39449;BME280;25151;45.566;9.382;2023-04-15T06:47:29;98699.31;;;19.30;56.16
39449;BME280;25151;45.566;9.382;2023-04-15T06:50:31;98705.22;;;19.32;56.17
39449;BME280;25151;45.566;9.382;2023-04-15T06:53:33;98705.22;;;19.32;56.26
39449;BME280;25151;45.566;9.382;2023-04-15T06:56:35;98700.44;;;19.32;56.13
39449;BME280;25151;45.566;9.382;2023-04-15T06:59:36;98695.59;;;19.33;56.21
39449;BME280;25151;45.566;9.382;2023-04-15T07:02:37;98704.00;;;19.33;56.06
39449;BME280;25151;45.566;9.382;2023-04-15T07:05:38;98705.22;;;19.32;56.27
39449;BME280;25151;45.566;9.382;2023-04-15T07:08:39;98706.78;;;19.33;56.30
39449;BME280;25151;45.566;9.382;2023-04-15T07:11:40;98713.16;;;19.33;56.41
39449;BME280;25151;45.566;9.382;2023-04-15T07:14:41;98712.38;;;19.33;56.34
39449;BME280;25151;45.566;9.382;2023-04-15T07:17:42;98702.75;;;19.34;56.45
39449;BME280;25151;45.566;9.382;2023-04-15T07:20:43;98704.00;;;19.33;56.74
39449;BME280;25151;45.566;9.382;2023-04-15T07:23:45;98712.38;;;19.33;56.34
39449;BME280;25151;45.566;9.382;2023-04-15T07:26:46;98706.78;;;19.33;56.51
39449;BME280;25151;45.566;9.382;2023-04-15T07:29:47;98706.78;;;19.33;56.27
39449;BME280;25151;45.566;9.382;2023-04-15T07:32:48;98708.00;;;19.32;56.51
39449;BME280;25151;45.566;9.382;2023-04-15T07:35:50;98706.78;;;19.33;56.52
39449;BME280;25151;45.566;9.382;2023-04-15T07:38:51;98696.38;;;19.33;56.53
39449;BME280;25151;45.566;9.382;2023-04-15T07:41:52;98690.00;;;19.33;56.47
39449;BME280;25151;45.566;9.382;2023-04-15T07:44:52;98692.81;;;19.33;56.52
39449;BME280;25151;45.566;9.382;2023-04-15T07:47:53;98690.00;;;19.33;56.25
39449;BME280;25151;45.566;9.382;2023-04-15T07:50:56;98706.78;;;19.33;56.56
39449;BME280;25151;45.566;9.382;2023-04-15T07:53:57;98695.13;;;19.34;56.52
39449;BME280;25151;45.566;9.382;2023-04-15T07:56:58;98701.97;;;19.33;56.34
39449;BME280;25151;45.566;9.382;2023-04-15T08:00:01;98699.63;;;19.32;56.63
39449;BME280;25151;45.566;9.382;2023-04-15T08:03:05;98688.00;;;19.33;56.25
39449;BME280;25151;45.566;9.382;2023-04-15T08:06:06;98686.75;;;19.34;56.51
39449;BME280;25151;45.566;9.382;2023-04-15T08:09:08;98690.31;;;19.35;56.40
39449;BME280;25151;45.566;9.382;2023-04-15T08:12:09;98686.25;;;19.36;56.43
39449;BME280;25151;45.566;9.382;2023-04-15T08:15:13;98693.09;;;19.35;56.45
39449;BME280;25151;45.566;9.382;2023-04-15T08:18:14;98693.59;;;19.33;56.46
39449;BME280;25151;45.566;9.382;2023-04-15T08:21:17;98687.50;;;19.35;56.46
39449;BME280;25151;45.566;9.382;2023-04-15T08:24:19;98687.84;;;19.37;56.53
39449;BME280;25151;45.566;9.382;2023-04-15T08:27:20;98694.97;;;19.38;56.50
39449;BME280;25151;45.566;9.382;2023-04-15T08:30:21;98688.91;;;19.39;56.30
39449;BME280;25151;45.566;9.382;2023-04-15T08:33:22;98681.59;;;19.42;56.34
39449;BME280;25151;45.566;9.382;2023-04-15T08:36:23;98687.19;;;19.42;56.40
39449;BME280;25151;45.566;9.382;2023-04-15T08:39:24;98691.09;;;19.45;56.23
39449;BME280;25151;45.566;9.382;2023-04-15T08:42:46;98693.41;;;19.46;56.32
39449;BME280;25151;45.566;9.382;2023-04-15T08:45:49;98688.59;;;19.47;56.20
39449;BME280;25151;45.566;9.382;2023-04-15T08:48:55;98676.63;;;19.46;56.21
39449;BME280;25151;45.566;9.382;2023-04-15T08:51:59;98680.97;;;19.47;56.22
39449;BME280;25151;45.566;9.382;2023-04-15T08:55:01;98677.72;;;19.49;56.17
39449;BME280;25151;45.566;9.382;2023-04-15T08:58:05;98677.25;;;19.50;56.16
39449;BME280;25151;45.566;9.382;2023-04-15T09:01:06;98672.41;;;19.51;56.23
39449;BME280;25151;45.566;9.382;2023-04-15T09:04:07;98672.25;;;19.54;56.03
39449;BME280;25151;45.566;9.382;2023-04-15T09:07:08;98668.69;;;19.54;56.11
39449;BME280;25151;45.566;9.382;2023-04-15T09:10:09;98661.06;;;19.54;56.01
39449;BME280;25151;45.566;9.382;2023-04-15T09:13:11;98662.63;;;19.55;56.14
39449;BME280;25151;45.566;9.382;2023-04-15T09:16:15;98666.19;;;19.56;56.11
39449;BME280;25151;45.566;9.382;2023-04-15T09:19:21;98660.16;;;19.57;56.07
39449;BME280;25151;45.566;9.382;2023-04-15T09:22:23;98661.69;;;19.58;56.00
39449;BME280;25151;45.566;9.382;2023-04-15T09:25:28;98656.88;;;19.59;56.11
39449;BME280;25151;45.566;9.382;2023-04-15T09:28:30;98659.22;;;19.60;56.11
39449;BME280;25151;45.566;9.382;2023-04-15T09:31:32;98655.19;;;19.61;56.11
39449;BME280;25151;45.566;9.382;2023-04-15T09:34:37;98651.91;;;19.63;55.99
39449;BME280;25151;45.566;9.382;2023-04-15T09:37:38;98651.13;;;19.62;55.92
39449;BME280;25151;45.566;9.382;2023-04-15T09:40:41;98644.28;;;19.63;56.14
39449;BME280;25151;45.566;9.382;2023-04-15T09:43:42;98637.47;;;19.64;56.04
39449;BME280;25151;45.566;9.382;2023-04-15T09:46:44;98636.22;;;19.65;55.88
39449;BME280;25151;45.566;9.382;2023-04-15T09:49:55;98627.84;;;19.65;55.97
39449;BME280;25151;45.566;9.382;2023-04-15T09:52:57;98640.56;;;19.67;55.91
39449;BME280;25151;45.566;9.382;2023-04-15T09:55:59;98632.50;;;19.69;56.02
39449;BME280;25151;45.566;9.382;2023-04-15T09:59:01;98630.47;;;19.69;55.92
39449;BME280;25151;45.566;9.382;2023-04-15T10:02:03;98629.97;;;19.71;55.91
39449;BME280;25151;45.566;9.382;2023-04-15T10:05:07;98624.69;;;19.73;55.97
39449;BME280;25151;45.566;9.382;2023-04-15T10:08:10;98624.69;;;19.73;55.86
39449;BME280;25151;45.566;9.382;2023-04-15T10:11:12;98618.78;;;19.71;55.98
39449;BME280;25151;45.566;9.382;2023-04-15T10:14:13;98625.66;;;19.70;55.71
39449;BME280;25151;45.566;9.382;2023-04-15T10:17:17;98620.81;;;19.70;55.92
39449;BME280;25151;45.566;9.382;2023-04-15T10:20:18;98619.56;;;19.71;55.86
39449;BME280;25151;45.566;9.382;2023-04-15T10:23:21;98615.22;;;19.70;56.03
39449;BME280;25151;45.566;9.382;2023-04-15T10:26:22;98618.78;;;19.71;55.89
39449;BME280;25151;45.566;9.382;2023-04-15T10:29:24;98614.47;;;19.70;55.94
39449;BME280;25151;45.566;9.382;2023-04-15T10:32:28;98612.44;;;19.70;55.82
39449;BME280;25151;45.566;9.382;2023-04-15T10:35:31;98610.41;;;19.71;56.00
39449;BME280;25151;45.566;9.382;2023-04-15T10:38:44;98602.00;;;19.71;55.89
39449;BME280;25151;45.566;9.382;2023-04-15T10:42:07;98605.28;;;19.69;55.91
39449;BME280;25151;45.566;9.382;2023-04-15T10:45:15;98603.56;;;19.72;55.83
39449;BME280;25151;45.566;9.382;2023-04-15T10:48:17;98606.06;;;19.70;56.01
39449;BME280;25151;45.566;9.382;2023-04-15T10:51:29;98601.25;;;19.70;56.03
39449;BME280;25151;45.566;9.382;2023-04-15T10:54:31;98609.75;;;19.76;55.82
39449;BME280;25151;45.566;9.382;2023-04-15T10:57:40;98599.66;;;19.78;55.68
39449;BME280;25151;45.566;9.382;2023-04-15T11:00:49;98599.19;;;19.80;55.79
39449;BME280;25151;45.566;9.382;2023-04-15T11:03:52;98593.41;;;19.83;55.60
39449;BME280;25151;45.566;9.382;2023-04-15T11:07:07;98593.41;;;19.83;55.68
39449;BME280;25151;45.566;9.382;2023-04-15T11:13:26;98585.16;;;19.89;55.78
39449;BME280;25151;45.566;9.382;2023-04-15T11:16:28;98585.44;;;19.91;55.71
39449;BME280;25151;45.566;9.382;2023-04-15T11:19:39;98588.25;;;19.91;55.83
39449;BME280;25151;45.566;9.382;2023-04-15T11:22:47;98581.88;;;19.90;55.92
39449;BME280;25151;45.566;9.382;2023-04-15T11:25:48;98578.63;;;19.92;55.67
39449;BME280;25151;45.566;9.382;2023-04-15T11:28:49;98574.56;;;19.93;55.96
39449;BME280;25151;45.566;9.382;2023-04-15T11:31:50;98573.31;;;19.94;56.03
39449;BME280;25151;45.566;9.382;2023-04-15T11:34:51;98562.44;;;19.96;55.92
39449;BME280;25151;45.566;9.382;2023-04-15T11:37:52;98568.47;;;19.95;55.84
39449;BME280;25151;45.566;9.382;2023-04-15T11:40:53;98566.78;;;19.97;55.92
39449;BME280;25151;45.566;9.382;2023-04-15T11:43:54;98567.25;;;19.96;55.89
39449;BME280;25151;45.566;9.382;2023-04-15T11:46:55;98568.47;;;19.95;55.71
39449;BME280;25151;45.566;9.382;2023-04-15T11:49:56;98569.25;;;19.95;56.02
39449;BME280;25151;45.566;9.382;2023-04-15T11:53:02;98583.25;;;19.95;56.09
39449;BME280;25151;45.566;9.382;2023-04-15T11:56:04;98573.31;;;19.94;56.16
39449;BME280;25151;45.566;9.382;2023-04-15T11:59:05;98578.91;;;19.94;56.08
39449;BME280;25151;45.566;9.382;2023-04-15T12:02:12;98574.06;;;19.95;56.02
39449;BME280;25151;45.566;9.382;2023-04-15T12:05:13;98570.50;;;19.94;56.10
39449;BME280;25151;45.566;9.382;2023-04-15T12:08:15;98573.63;;;19.96;55.90
39449;BME280;25151;45.566;9.382;2023-04-15T12:11:16;98568.03;;;19.96;56.07
39449;BME280;25151;45.566;9.382;2023-04-15T12:14:26;98567.84;;;20.00;56.00
39449;BME280;25151;45.566;9.382;2023-04-15T12:17:29;98567.38;;;20.01;55.59
39449;BME280;25151;45.566;9.382;2023-04-15T12:20:30;98564.09;;;20.03;55.87
39449;BME280;25151;45.566;9.382;2023-04-15T12:23:31;98569.22;;;20.04;55.77
39449;BME280;25151;45.566;9.382;2023-04-15T12:26:43;98571.84;;;20.08;55.75
39449;BME280;25151;45.566;9.382;2023-04-15T12:29:44;98569.81;;;20.08;55.81
39449;BME280;25151;45.566;9.382;2023-04-15T12:32:45;98576.97;;;20.09;55.96
39449;BME280;25151;45.566;9.382;2023-04-15T12:35:46;98570.59;;;20.09;55.80
39449;BME280;25151;45.566;9.382;2023-04-15T12:38:48;98570.88;;;20.11;55.78
39449;BME280;25151;45.566;9.382;2023-04-15T12:41:49;98566.06;;;20.11;55.71
39449;BME280;25151;45.566;9.382;2023-04-15T12:44:50;98564.81;;;20.12;55.79
39449;BME280;25151;45.566;9.382;2023-04-15T12:47:50;98562.03;;;20.12;55.89
39449;BME280;25151;45.566;9.382;2023-04-15T12:50:51;98565.09;;;20.14;55.66
39449;BME280;25151;45.566;9.382;2023-04-15T12:53:53;98567.44;;;20.16;55.70
39449;BME280;25151;45.566;9.382;2023-04-15T12:56:57;98566.66;;;20.16;55.85
39449;BME280;25151;45.566;9.382;2023-04-15T12:59:58;98566.34;;;20.13;55.74
39449;BME280;25151;45.566;9.382;2023-04-15T13:02:59;98574.75;;;20.13;55.63
39449;BME280;25151;45.566;9.382;2023-04-15T13:06:01;98569.16;;;20.13;55.93
39449;BME280;25151;45.566;9.382;2023-04-15T13:09:04;98573.50;;;20.14;55.73
39449;BME280;25151;45.566;9.382;2023-04-15T13:12:06;98569.16;;;20.13;55.83
39449;BME280;25151;45.566;9.382;2023-04-15T13:15:08;98571.94;;;20.13;55.99
39449;BME280;25151;45.566;9.382;2023-04-15T13:18:11;98577.56;;;20.13;55.62
39449;BME280;25151;45.566;9.382;2023-04-15T13:21:12;98569.16;;;20.13;55.92
39449;BME280;25151;45.566;9.382;2023-04-15T13:24:13;98572.72;;;20.14;55.74
39449;BME280;25151;45.566;9.382;2023-04-15T13:27:15;98570.41;;;20.12;55.88
39449;BME280;25151;45.566;9.382;2023-04-15T13:30:17;98566.84;;;20.12;55.85
39449;BME280;25151;45.566;9.382;2023-04-15T13:33:18;98572.91;;;20.10;55.69
39449;BME280;25151;45.566;9.382;2023-04-15T13:36:20;98570.88;;;20.11;55.75
39449;BME280;25151;45.566;9.382;2023-04-15T13:39:21;98575.69;;;20.10;55.91
39449;BME280;25151;45.566;9.382;2023-04-15T13:42:22;98572.13;;;20.10;55.92
39449;BME280;25151;45.566;9.382;2023-04-15T13:45:23;98576.97;;;20.09;55.97
39449;BME280;25151;45.566;9.382;2023-04-15T13:48:25;98567.03;;;20.08;55.86
39449;BME280;25151;45.566;9.382;2023-04-15T13:51:27;98576.97;;;20.09;55.80
39449;BME280;25151;45.566;9.382;2023-04-15T13:54:28;98581.00;;;20.08;55.79
39449;BME280;25151;45.566;9.382;2023-04-15T13:57:30;98578.66;;;20.07;55.89
39449;BME280;25151;45.566;9.382;2023-04-15T14:00:32;98577.13;;;20.06;55.67
39449;BME280;25151;45.566;9.382;2023-04-15T14:03:34;98589.09;;;20.06;55.83
39449;BME280;25151;45.566;9.382;2023-04-15T14:06:36;98585.53;;;20.06;55.75
39449;BME280;25151;45.566;9.382;2023-04-15T14:09:37;98586.00;;;20.04;55.74
39449;BME280;25151;45.566;9.382;2023-04-15T14:12:39;98587.56;;;20.05;55.57
39449;BME280;25151;45.566;9.382;2023-04-15T14:15:42;98591.59;;;20.04;55.63
39449;BME280;25151;45.566;9.382;2023-04-15T14:18:43;98589.25;;;20.03;55.80
39449;BME280;25151;45.566;9.382;2023-04-15T14:21:45;98578.56;;;20.01;55.78
39449;BME280;25151;45.566;9.382;2023-04-15T14:24:47;98582.91;;;20.02;55.74
39449;BME280;25151;45.566;9.382;2023-04-15T14:27:49;98578.56;;;20.01;55.60
39449;BME280;25151;45.566;9.382;2023-04-15T14:30:51;98589.75;;;20.01;55.70
39449;BME280;25151;45.566;9.382;2023-04-15T14:33:52;98581.34;;;20.01;55.79
39449;BME280;25151;45.566;9.382;2023-04-15T14:36:54;98594.59;;;20.01;55.72
39449;BME280;25151;45.566;9.382;2023-04-15T14:39:57;98589.44;;;19.99;55.55
39449;BME280;25151;45.566;9.382;2023-04-15T14:42:58;98592.25;;;19.99;55.73
39449;BME280;25151;45.566;9.382;2023-04-15T14:46:01;98594.25;;;19.99;55.70
39449;BME280;25151;45.566;9.382;2023-04-15T14:49:02;98593.50;;;19.98;55.87
39449;BME280;25151;45.566;9.382;2023-04-15T14:52:03;98593.97;;;19.97;55.61
39449;BME280;25151;45.566;9.382;2023-04-15T14:55:10;98596.00;;;19.96;55.83
39449;BME280;25151;45.566;9.382;2023-04-15T14:58:11;98595.25;;;19.96;55.83
39449;BME280;25151;45.566;9.382;2023-04-15T15:01:13;98593.22;;;19.96;55.89
39449;BME280;25151;45.566;9.382;2023-04-15T15:04:20;98600.63;;;19.99;55.63
39449;BME280;25151;45.566;9.382;2023-04-15T15:07:23;98600.63;;;19.99;55.77
39449;BME280;25151;45.566;9.382;2023-04-15T15:10:28;98603.75;;;20.01;55.94
39449;BME280;25151;45.566;9.382;2023-04-15T15:13:33;98598.16;;;20.01;55.85
39449;BME280;25151;45.566;9.382;2023-04-15T15:16:37;98589.44;;;19.99;55.95
39449;BME280;25151;45.566;9.382;2023-04-15T15:19:41;98598.16;;;20.01;56.00
39449;BME280;25151;45.566;9.382;2023-04-15T15:22:46;98600.19;;;20.01;56.18
39449;BME280;25151;45.566;9.382;2023-04-15T15:25:50;98597.19;;;20.04;56.24
39449;BME280;25151;45.566;9.382;2023-04-15T15:28:52;98605.13;;;20.06;56.35
39449;BME280;25151;45.566;9.382;2023-04-15T15:31:53;98601.53;;;20.05;56.50
39449;BME280;25151;45.566;9.382;2023-04-15T15:34:54;98609.94;;;20.05;56.41
39449;BME280;25151;45.566;9.382;2023-04-15T15:37:59;98613.81;;;20.08;56.40
39449;BME280;25151;45.566;9.382;2023-04-15T15:41:03;98613.22;;;20.04;56.63
39449;BME280;25151;45.566;9.382;2023-04-15T15:44:06;98613.50;;;20.06;56.67
39449;BME280;25151;45.566;9.382;2023-04-15T15:47:09;98619.88;;;20.06;56.48
39449;BME280;25151;45.566;9.382;2023-04-15T15:50:15;98625.97;;;20.05;56.59
39449;BME280;25151;45.566;9.382;2023-04-15T15:53:18;98628.28;;;20.06;56.67
39449;BME280;25151;45.566;9.382;2023-04-15T15:56:22;98629.53;;;20.05;56.58
39449;BME280;25151;45.566;9.382;2023-04-15T15:59:25;98637.91;;;20.05;56.68
39449;BME280;25151;45.566;9.382;2023-04-15T16:02:33;98640.22;;;20.07;56.53
39449;BME280;25151;45.566;9.382;2023-04-15T16:05:40;98639.78;;;20.08;56.76
39449;BME280;25151;45.566;9.382;2023-04-15T16:08:42;98644.13;;;20.09;56.94